sensor_id;sensor_type;location;lat;lon;timestamp;P1;durP1;ratioP1;P2;durP2;ratioP2
22176;SDS011;11254;50.098;8.726;2023-08-01T00:00:54;9.25;;;3.90;;
22176;SDS011;11254;50.098;8.726;2023-08-01T00:03:23;9.27;;;3.97;;
22176;SDS011;11254;50.098;8.726;2023-08-01T00:05:51;10.73;;;4.35;;
22176;SDS011;11254;50.098;8.726;2023-08-01T00:08:21;6.45;;;3.60;;
22176;SDS011;11254;50.098;8.726;2023-08-01T00:10:49;6.50;;;3.50;;
22176;SDS011;11254;50.098;8.726;2023-08-01T00:13:18;7.93;;;3.63;;
22176;SDS011;11254;50.098;8.726;2023-08-01T00:15:47;8.75;;;3.85;;
22176;SDS011;11254;50.098;8.726;2023-08-01T00:18:33;10.00;;;4.93;;
22176;SDS011;11254;50.098;8.726;2023-08-01T00:21:01;9.52;;;4.03;;
22176;SDS011;11254;50.098;8.726;2023-08-01T00:23:31;9.55;;;4.38;;
22176;SDS011;11254;50.098;8.726;2023-08-01T00:26:00;10.40;;;4.05;;
22176;SDS011;11254;50.098;8.726;2023-08-01T00:28:28;8.82;;;3.92;;
22176;SDS011;11254;50.098;8.726;2023-08-01T00:31:12;11.77;;;4.80;;
22176;SDS011;11254;50.098;8.726;2023-08-01T00:33:41;13.30;;;4.53;;
22176;SDS011;11254;50.098;8.726;2023-08-01T00:36:09;9.00;;;4.20;;
22176;SDS011;11254;50.098;8.726;2023-08-01T00:38:38;12.13;;;4.43;;
22176;SDS011;11254;50.098;8.726;2023-08-01T00:41:08;11.70;;;4.30;;
22176;SDS011;11254;50.098;8.726;2023-08-01T00:43:36;8.07;;;4.10;;
22176;SDS011;11254;50.098;8.726;2023-08-01T00:46:06;11.13;;;4.60;;
22176;SDS011;11254;50.098;8.726;2023-08-01T00:48:36;10.15;;;4.60;;
22176;SDS011;11254;50.098;8.726;2023-08-01T00:51:05;9.55;;;4.32;;
22176;SDS011;11254;50.098;8.726;2023-08-01T00:53:34;10.35;;;4.68;;
22176;SDS011;11254;50.098;8.726;2023-08-01T00:56:03;8.15;;;4.40;;
22176;SDS011;11254;50.098;8.726;2023-08-01T00:58:31;11.43;;;4.38;;
22176;SDS011;11254;50.098;8.726;2023-08-01T01:01:00;10.27;;;4.40;;
22176;SDS011;11254;50.098;8.726;2023-08-01T01:03:31;10.32;;;4.75;;
22176;SDS011;11254;50.098;8.726;2023-08-01T01:06:01;10.45;;;4.82;;
22176;SDS011;11254;50.098;8.726;2023-08-01T01:08:29;10.95;;;4.25;;
22176;SDS011;11254;50.098;8.726;2023-08-01T01:10:58;7.95;;;4.35;;
22176;SDS011;11254;50.098;8.726;2023-08-01T01:13:26;10.55;;;4.75;;
22176;SDS011;11254;50.098;8.726;2023-08-01T01:15:55;9.13;;;4.68;;
22176;SDS011;11254;50.098;8.726;2023-08-01T01:18:23;8.73;;;3.95;;
22176;SDS011;11254;50.098;8.726;2023-08-01T01:20:53;8.77;;;4.28;;
22176;SDS011;11254;50.098;8.726;2023-08-01T01:23:21;7.70;;;3.75;;
22176;SDS011;11254;50.098;8.726;2023-08-01T01:25:50;8.55;;;3.47;;
22176;SDS011;11254;50.098;8.726;2023-08-01T01:28:19;9.75;;;4.00;;
22176;SDS011;11254;50.098;8.726;2023-08-01T01:30:48;10.48;;;4.63;;
22176;SDS011;11254;50.098;8.726;2023-08-01T01:33:17;9.43;;;4.30;;
22176;SDS011;11254;50.098;8.726;2023-08-01T01:35:46;9.82;;;4.05;;
22176;SDS011;11254;50.098;8.726;2023-08-01T01:38:16;8.55;;;4.13;;
22176;SDS011;11254;50.098;8.726;2023-08-01T01:40:45;8.65;;;4.57;;
22176;SDS011;11254;50.098;8.726;2023-08-01T01:43:13;8.13;;;4.68;;
22176;SDS011;11254;50.098;8.726;2023-08-01T01:45:42;8.95;;;4.65;;
22176;SDS011;11254;50.098;8.726;2023-08-01T01:48:10;8.80;;;4.80;;
22176;SDS011;11254;50.098;8.726;2023-08-01T01:50:38;10.88;;;5.10;;
22176;SDS011;11254;50.098;8.726;2023-08-01T01:53:07;9.20;;;4.93;;
22176;SDS011;11254;50.098;8.726;2023-08-01T01:55:37;10.68;;;4.88;;
22176;SDS011;11254;50.098;8.726;2023-08-01T01:58:06;13.52;;;5.45;;
22176;SDS011;11254;50.098;8.726;2023-08-01T02:00:34;11.02;;;5.43;;
22176;SDS011;11254;50.098;8.726;2023-08-01T02:03:03;11.95;;;5.68;;
22176;SDS011;11254;50.098;8.726;2023-08-01T02:05:33;10.93;;;5.43;;
22176;SDS011;11254;50.098;8.726;2023-08-01T02:08:02;9.82;;;4.90;;
22176;SDS011;11254;50.098;8.726;2023-08-01T02:10:31;10.77;;;4.90;;
22176;SDS011;11254;50.098;8.726;2023-08-01T02:13:00;9.40;;;4.63;;
22176;SDS011;11254;50.098;8.726;2023-08-01T02:15:29;9.80;;;5.00;;
22176;SDS011;11254;50.098;8.726;2023-08-01T02:17:57;10.63;;;4.65;;
22176;SDS011;11254;50.098;8.726;2023-08-01T02:20:26;11.23;;;5.38;;
22176;SDS011;11254;50.098;8.726;2023-08-01T02:22:55;11.30;;;5.00;;
22176;SDS011;11254;50.098;8.726;2023-08-01T02:25:23;11.77;;;4.70;;
22176;SDS011;11254;50.098;8.726;2023-08-01T02:27:52;10.63;;;4.60;;
22176;SDS011;11254;50.098;8.726;2023-08-01T02:30:22;9.70;;;4.70;;
22176;SDS011;11254;50.098;8.726;2023-08-01T02:32:50;11.40;;;4.57;;
22176;SDS011;11254;50.098;8.726;2023-08-01T02:35:19;11.00;;;4.68;;
22176;SDS011;11254;50.098;8.726;2023-08-01T02:37:47;8.98;;;4.47;;
22176;SDS011;11254;50.098;8.726;2023-08-01T02:40:16;10.32;;;4.18;;
22176;SDS011;11254;50.098;8.726;2023-08-01T02:42:44;10.88;;;4.70;;
22176;SDS011;11254;50.098;8.726;2023-08-01T02:45:12;10.82;;;4.68;;
22176;SDS011;11254;50.098;8.726;2023-08-01T02:47:43;11.85;;;4.72;;
22176;SDS011;11254;50.098;8.726;2023-08-01T02:50:11;10.18;;;4.65;;
22176;SDS011;11254;50.098;8.726;2023-08-01T02:52:40;10.15;;;4.25;;
22176;SDS011;11254;50.098;8.726;2023-08-01T02:55:08;9.38;;;4.50;;
22176;SDS011;11254;50.098;8.726;2023-08-01T02:57:37;11.13;;;4.50;;
22176;SDS011;11254;50.098;8.726;2023-08-01T03:00:06;11.85;;;4.78;;
22176;SDS011;11254;50.098;8.726;2023-08-01T03:02:37;10.82;;;4.32;;
22176;SDS011;11254;50.098;8.726;2023-08-01T03:05:08;7.35;;;3.72;;
22176;SDS011;11254;50.098;8.726;2023-08-01T03:07:37;8.75;;;4.50;;
22176;SDS011;11254;50.098;8.726;2023-08-01T03:10:07;10.65;;;4.75;;
22176;SDS011;11254;50.098;8.726;2023-08-01T03:12:42;10.20;;;4.88;;
22176;SDS011;11254;50.098;8.726;2023-08-01T03:15:11;10.07;;;4.50;;
22176;SDS011;11254;50.098;8.726;2023-08-01T03:17:39;10.73;;;5.68;;
22176;SDS011;11254;50.098;8.726;2023-08-01T03:20:10;9.48;;;3.90;;
22176;SDS011;11254;50.098;8.726;2023-08-01T03:22:38;8.80;;;4.38;;
22176;SDS011;11254;50.098;8.726;2023-08-01T03:25:07;7.90;;;4.57;;
22176;SDS011;11254;50.098;8.726;2023-08-01T03:27:36;10.05;;;4.07;;
22176;SDS011;11254;50.098;8.726;2023-08-01T03:30:05;9.73;;;3.90;;
22176;SDS011;11254;50.098;8.726;2023-08-01T03:32:35;8.45;;;4.25;;
22176;SDS011;11254;50.098;8.726;2023-08-01T03:35:04;9.05;;;4.13;;
22176;SDS011;11254;50.098;8.726;2023-08-01T03:37:34;8.55;;;3.63;;
22176;SDS011;11254;50.098;8.726;2023-08-01T03:40:04;9.18;;;4.07;;
22176;SDS011;11254;50.098;8.726;2023-08-01T03:42:35;8.38;;;4.07;;
22176;SDS011;11254;50.098;8.726;2023-08-01T03:45:03;12.07;;;4.50;;
22176;SDS011;11254;50.098;8.726;2023-08-01T03:47:32;13.82;;;4.25;;
22176;SDS011;11254;50.098;8.726;2023-08-01T03:50:01;7.97;;;3.60;;
22176;SDS011;11254;50.098;8.726;2023-08-01T03:52:29;9.95;;;4.03;;
22176;SDS011;11254;50.098;8.726;2023-08-01T03:54:59;9.68;;;4.20;;
22176;SDS011;11254;50.098;8.726;2023-08-01T03:57:27;8.38;;;3.70;;
22176;SDS011;11254;50.098;8.726;2023-08-01T03:59:56;12.00;;;4.07;;
22176;SDS011;11254;50.098;8.726;2023-08-01T04:02:24;13.25;;;4.13;;
22176;SDS011;11254;50.098;8.726;2023-08-01T04:04:53;9.90;;;4.38;;
22176;SDS011;11254;50.098;8.726;2023-08-01T04:07:21;8.25;;;3.90;;
22176;SDS011;11254;50.098;8.726;2023-08-01T04:09:49;9.45;;;4.10;;
22176;SDS011;11254;50.098;8.726;2023-08-01T04:12:19;10.10;;;4.43;;
22176;SDS011;11254;50.098;8.726;2023-08-01T04:14:47;9.80;;;4.03;;
22176;SDS011;11254;50.098;8.726;2023-08-01T04:17:16;9.95;;;4.07;;
22176;SDS011;11254;50.098;8.726;2023-08-01T04:19:44;10.18;;;4.15;;
22176;SDS011;11254;50.098;8.726;2023-08-01T04:22:12;10.48;;;4.47;;
22176;SDS011;11254;50.098;8.726;2023-08-01T04:24:40;11.00;;;4.55;;
22176;SDS011;11254;50.098;8.726;2023-08-01T04:27:09;11.95;;;4.47;;
22176;SDS011;11254;50.098;8.726;2023-08-01T04:29:39;11.65;;;4.65;;
22176;SDS011;11254;50.098;8.726;2023-08-01T04:32:07;10.57;;;4.60;;
22176;SDS011;11254;50.098;8.726;2023-08-01T04:34:39;9.13;;;4.60;;
22176;SDS011;11254;50.098;8.726;2023-08-01T04:37:07;10.50;;;4.13;;
22176;SDS011;11254;50.098;8.726;2023-08-01T04:39:36;9.40;;;4.07;;
22176;SDS011;11254;50.098;8.726;2023-08-01T04:42:05;8.48;;;3.95;;
22176;SDS011;11254;50.098;8.726;2023-08-01T04:44:34;13.85;;;4.65;;
22176;SDS011;11254;50.098;8.726;2023-08-01T04:47:04;8.50;;;4.10;;
22176;SDS011;11254;50.098;8.726;2023-08-01T04:49:33;9.70;;;3.88;;
22176;SDS011;11254;50.098;8.726;2023-08-01T04:52:01;6.55;;;3.53;;
22176;SDS011;11254;50.098;8.726;2023-08-01T04:54:33;7.43;;;3.60;;
22176;SDS011;11254;50.098;8.726;2023-08-01T04:57:02;7.07;;;3.38;;
22176;SDS011;11254;50.098;8.726;2023-08-01T04:59:30;9.10;;;3.45;;
22176;SDS011;11254;50.098;8.726;2023-08-01T05:01:58;10.40;;;3.95;;
22176;SDS011;11254;50.098;8.726;2023-08-01T05:04:28;8.63;;;3.88;;
22176;SDS011;11254;50.098;8.726;2023-08-01T05:06:57;7.57;;;3.33;;
22176;SDS011;11254;50.098;8.726;2023-08-01T05:09:25;6.47;;;3.38;;
22176;SDS011;11254;50.098;8.726;2023-08-01T05:11:53;9.30;;;3.70;;
22176;SDS011;11254;50.098;8.726;2023-08-01T05:14:22;7.65;;;3.75;;
22176;SDS011;11254;50.098;8.726;2023-08-01T05:16:50;6.78;;;3.28;;
22176;SDS011;11254;50.098;8.726;2023-08-01T05:19:18;6.25;;;2.85;;
22176;SDS011;11254;50.098;8.726;2023-08-01T05:21:48;6.43;;;3.20;;
22176;SDS011;11254;50.098;8.726;2023-08-01T05:24:16;6.97;;;3.58;;
22176;SDS011;11254;50.098;8.726;2023-08-01T05:26:45;6.88;;;3.17;;
22176;SDS011;11254;50.098;8.726;2023-08-01T05:29:14;13.15;;;3.92;;
22176;SDS011;11254;50.098;8.726;2023-08-01T05:31:43;7.65;;;3.55;;
22176;SDS011;11254;50.098;8.726;2023-08-01T05:34:11;7.45;;;3.60;;
22176;SDS011;11254;50.098;8.726;2023-08-01T05:36:39;6.75;;;2.88;;
22176;SDS011;11254;50.098;8.726;2023-08-01T05:39:10;7.40;;;3.33;;
22176;SDS011;11254;50.098;8.726;2023-08-01T05:41:38;7.10;;;2.83;;
22176;SDS011;11254;50.098;8.726;2023-08-01T05:44:07;6.25;;;2.90;;
22176;SDS011;11254;50.098;8.726;2023-08-01T05:46:35;8.23;;;3.25;;
22176;SDS011;11254;50.098;8.726;2023-08-01T05:49:04;6.25;;;3.03;;
22176;SDS011;11254;50.098;8.726;2023-08-01T05:51:32;6.63;;;3.13;;
22176;SDS011;11254;50.098;8.726;2023-08-01T05:54:01;8.32;;;3.42;;
22176;SDS011;11254;50.098;8.726;2023-08-01T05:56:31;7.10;;;3.00;;
22176;SDS011;11254;50.098;8.726;2023-08-01T05:58:59;8.38;;;3.05;;
22176;SDS011;11254;50.098;8.726;2023-08-01T06:01:28;7.47;;;3.20;;
22176;SDS011;11254;50.098;8.726;2023-08-01T06:03:56;7.53;;;3.40;;
22176;SDS011;11254;50.098;8.726;2023-08-01T06:06:25;6.82;;;3.38;;
22176;SDS011;11254;50.098;8.726;2023-08-01T06:08:53;7.95;;;3.50;;
22176;SDS011;11254;50.098;8.726;2023-08-01T06:11:22;8.02;;;3.55;;
22176;SDS011;11254;50.098;8.726;2023-08-01T06:13:52;9.50;;;4.05;;
22176;SDS011;11254;50.098;8.726;2023-08-01T06:16:20;7.40;;;3.92;;
22176;SDS011;11254;50.098;8.726;2023-08-01T06:18:51;9.68;;;4.25;;
22176;SDS011;11254;50.098;8.726;2023-08-01T06:21:19;9.48;;;4.45;;
22176;SDS011;11254;50.098;8.726;2023-08-01T06:23:48;9.35;;;4.30;;
22176;SDS011;11254;50.098;8.726;2023-08-01T06:26:16;8.70;;;4.22;;
22176;SDS011;11254;50.098;8.726;2023-08-01T06:28:44;7.80;;;3.85;;
22176;SDS011;11254;50.098;8.726;2023-08-01T06:31:14;8.32;;;4.10;;
22176;SDS011;11254;50.098;8.726;2023-08-01T06:33:43;8.32;;;3.90;;
22176;SDS011;11254;50.098;8.726;2023-08-01T06:36:11;8.25;;;4.07;;
22176;SDS011;11254;50.098;8.726;2023-08-01T06:38:42;9.27;;;3.80;;
22176;SDS011;11254;50.098;8.726;2023-08-01T06:41:10;9.35;;;4.10;;
22176;SDS011;11254;50.098;8.726;2023-08-01T06:43:39;9.52;;;3.92;;
22176;SDS011;11254;50.098;8.726;2023-08-01T06:46:07;6.90;;;3.65;;
22176;SDS011;11254;50.098;8.726;2023-08-01T06:48:37;7.18;;;2.28;;
22176;SDS011;11254;50.098;8.726;2023-08-01T06:51:06;4.45;;;1.80;;
22176;SDS011;11254;50.098;8.726;2023-08-01T06:53:34;2.33;;;0.90;;
22176;SDS011;11254;50.098;8.726;2023-08-01T06:56:02;2.72;;;0.90;;
22176;SDS011;11254;50.098;8.726;2023-08-01T06:58:31;3.35;;;1.10;;
22176;SDS011;11254;50.098;8.726;2023-08-01T07:00:59;4.10;;;1.50;;
22176;SDS011;11254;50.098;8.726;2023-08-01T07:03:27;3.13;;;1.40;;
22176;SDS011;11254;50.098;8.726;2023-08-01T07:05:57;3.60;;;0.93;;
22176;SDS011;11254;50.098;8.726;2023-08-01T07:08:25;6.65;;;1.02;;
22176;SDS011;11254;50.098;8.726;2023-08-01T07:10:54;3.03;;;1.00;;
22176;SDS011;11254;50.098;8.726;2023-08-01T07:13:22;2.67;;;0.98;;
22176;SDS011;11254;50.098;8.726;2023-08-01T07:15:51;3.20;;;1.20;;
22176;SDS011;11254;50.098;8.726;2023-08-01T07:18:20;2.58;;;0.95;;
22176;SDS011;11254;50.098;8.726;2023-08-01T07:20:48;2.97;;;0.90;;
22176;SDS011;11254;50.098;8.726;2023-08-01T07:23:28;2.63;;;0.95;;
22176;SDS011;11254;50.098;8.726;2023-08-01T07:25:56;3.53;;;1.00;;
22176;SDS011;11254;50.098;8.726;2023-08-01T07:28:24;3.58;;;1.00;;
22176;SDS011;11254;50.098;8.726;2023-08-01T07:30:57;3.00;;;1.13;;
22176;SDS011;11254;50.098;8.726;2023-08-01T07:33:26;3.90;;;1.10;;
22176;SDS011;11254;50.098;8.726;2023-08-01T07:35:54;3.08;;;1.20;;
22176;SDS011;11254;50.098;8.726;2023-08-01T07:38:23;2.45;;;0.95;;
22176;SDS011;11254;50.098;8.726;2023-08-01T07:40:55;3.10;;;1.13;;
22176;SDS011;11254;50.098;8.726;2023-08-01T07:43:23;4.50;;;1.15;;
22176;SDS011;11254;50.098;8.726;2023-08-01T07:45:54;2.70;;;1.10;;
22176;SDS011;11254;50.098;8.726;2023-08-01T07:48:23;3.40;;;1.10;;
22176;SDS011;11254;50.098;8.726;2023-08-01T07:50:52;3.05;;;1.20;;
22176;SDS011;11254;50.098;8.726;2023-08-01T07:53:20;3.67;;;1.30;;
22176;SDS011;11254;50.098;8.726;2023-08-01T07:55:49;2.63;;;1.15;;
22176;SDS011;11254;50.098;8.726;2023-08-01T07:58:25;3.35;;;1.20;;
22176;SDS011;11254;50.098;8.726;2023-08-01T08:00:56;2.30;;;0.95;;
22176;SDS011;11254;50.098;8.726;2023-08-01T08:03:25;4.38;;;1.30;;
22176;SDS011;11254;50.098;8.726;2023-08-01T08:05:54;2.88;;;1.10;;
22176;SDS011;11254;50.098;8.726;2023-08-01T08:08:23;2.63;;;1.10;;
22176;SDS011;11254;50.098;8.726;2023-08-01T08:10:52;10.23;;;1.70;;
22176;SDS011;11254;50.098;8.726;2023-08-01T08:13:34;2.80;;;1.00;;
22176;SDS011;11254;50.098;8.726;2023-08-01T08:16:04;2.72;;;1.05;;
22176;SDS011;11254;50.098;8.726;2023-08-01T08:18:33;2.90;;;0.70;;
22176;SDS011;11254;50.098;8.726;2023-08-01T08:21:09;3.35;;;0.98;;
22176;SDS011;11254;50.098;8.726;2023-08-01T08:23:45;3.60;;;1.20;;
22176;SDS011;11254;50.098;8.726;2023-08-01T08:26:13;2.30;;;0.90;;
22176;SDS011;11254;50.098;8.726;2023-08-01T08:28:43;3.25;;;1.20;;
22176;SDS011;11254;50.098;8.726;2023-08-01T08:31:12;3.38;;;1.27;;
22176;SDS011;11254;50.098;8.726;2023-08-01T08:33:40;2.42;;;0.98;;
22176;SDS011;11254;50.098;8.726;2023-08-01T08:36:11;4.38;;;1.23;;
22176;SDS011;11254;50.098;8.726;2023-08-01T08:38:40;2.75;;;1.00;;
22176;SDS011;11254;50.098;8.726;2023-08-01T08:41:09;2.72;;;1.00;;
22176;SDS011;11254;50.098;8.726;2023-08-01T08:43:42;4.15;;;2.03;;
22176;SDS011;11254;50.098;8.726;2023-08-01T08:46:12;3.95;;;1.50;;
22176;SDS011;11254;50.098;8.726;2023-08-01T08:48:45;2.80;;;1.10;;
22176;SDS011;11254;50.098;8.726;2023-08-01T08:51:14;3.50;;;1.20;;
22176;SDS011;11254;50.098;8.726;2023-08-01T08:53:45;8.23;;;1.67;;
22176;SDS011;11254;50.098;8.726;2023-08-01T08:56:15;3.53;;;1.20;;
22176;SDS011;11254;50.098;8.726;2023-08-01T08:58:46;5.93;;;1.95;;
22176;SDS011;11254;50.098;8.726;2023-08-01T09:01:17;3.67;;;1.38;;
22176;SDS011;11254;50.098;8.726;2023-08-01T09:03:46;2.65;;;1.10;;
22176;SDS011;11254;50.098;8.726;2023-08-01T09:06:16;7.40;;;3.72;;
22176;SDS011;11254;50.098;8.726;2023-08-01T09:08:46;7.53;;;2.70;;
22176;SDS011;11254;50.098;8.726;2023-08-01T09:11:19;3.55;;;1.17;;
22176;SDS011;11254;50.098;8.726;2023-08-01T09:13:50;4.15;;;1.38;;
22176;SDS011;11254;50.098;8.726;2023-08-01T09:16:19;3.42;;;1.38;;
22176;SDS011;11254;50.098;8.726;2023-08-01T09:18:49;4.80;;;2.42;;
22176;SDS011;11254;50.098;8.726;2023-08-01T09:21:21;3.55;;;1.30;;
22176;SDS011;11254;50.098;8.726;2023-08-01T09:23:50;5.30;;;1.30;;
22176;SDS011;11254;50.098;8.726;2023-08-01T09:26:19;3.90;;;1.35;;
22176;SDS011;11254;50.098;8.726;2023-08-01T09:28:56;2.22;;;0.88;;
22176;SDS011;11254;50.098;8.726;2023-08-01T09:31:28;2.80;;;1.00;;
22176;SDS011;11254;50.098;8.726;2023-08-01T09:33:57;3.40;;;1.10;;
22176;SDS011;11254;50.098;8.726;2023-08-01T09:36:26;3.45;;;1.25;;
22176;SDS011;11254;50.098;8.726;2023-08-01T09:38:57;4.75;;;0.85;;
22176;SDS011;11254;50.098;8.726;2023-08-01T09:41:26;2.20;;;0.90;;
22176;SDS011;11254;50.098;8.726;2023-08-01T09:43:56;3.75;;;0.93;;
22176;SDS011;11254;50.098;8.726;2023-08-01T09:46:25;2.45;;;0.90;;
22176;SDS011;11254;50.098;8.726;2023-08-01T09:48:53;2.13;;;0.90;;
22176;SDS011;11254;50.098;8.726;2023-08-01T09:51:22;4.10;;;1.02;;
22176;SDS011;11254;50.098;8.726;2023-08-01T09:53:51;3.75;;;1.00;;
22176;SDS011;11254;50.098;8.726;2023-08-01T09:56:20;3.47;;;1.20;;
22176;SDS011;11254;50.098;8.726;2023-08-01T09:58:49;3.80;;;1.50;;
22176;SDS011;11254;50.098;8.726;2023-08-01T10:01:19;3.60;;;0.88;;
22176;SDS011;11254;50.098;8.726;2023-08-01T10:03:50;3.47;;;1.10;;
22176;SDS011;11254;50.098;8.726;2023-08-01T10:06:22;3.55;;;1.15;;
22176;SDS011;11254;50.098;8.726;2023-08-01T10:08:51;5.07;;;0.90;;
22176;SDS011;11254;50.098;8.726;2023-08-01T10:11:22;3.38;;;0.90;;
22176;SDS011;11254;50.098;8.726;2023-08-01T10:13:53;3.00;;;0.90;;
22176;SDS011;11254;50.098;8.726;2023-08-01T10:16:25;4.88;;;1.48;;
22176;SDS011;11254;50.098;8.726;2023-08-01T10:18:56;3.25;;;1.20;;
22176;SDS011;11254;50.098;8.726;2023-08-01T10:21:25;2.75;;;1.10;;
22176;SDS011;11254;50.098;8.726;2023-08-01T10:23:57;3.40;;;1.00;;
22176;SDS011;11254;50.098;8.726;2023-08-01T10:26:27;3.60;;;1.25;;
22176;SDS011;11254;50.098;8.726;2023-08-01T10:28:57;3.17;;;1.13;;
22176;SDS011;11254;50.098;8.726;2023-08-01T10:31:30;2.78;;;1.00;;
22176;SDS011;11254;50.098;8.726;2023-08-01T10:34:05;3.30;;;1.23;;
22176;SDS011;11254;50.098;8.726;2023-08-01T10:36:39;2.53;;;1.17;;
22176;SDS011;11254;50.098;8.726;2023-08-01T10:39:11;3.15;;;1.17;;
22176;SDS011;11254;50.098;8.726;2023-08-01T10:41:56;3.25;;;1.10;;
22176;SDS011;11254;50.098;8.726;2023-08-01T10:44:27;3.80;;;1.20;;
22176;SDS011;11254;50.098;8.726;2023-08-01T10:47:00;3.55;;;1.40;;
22176;SDS011;11254;50.098;8.726;2023-08-01T10:49:33;3.88;;;1.58;;
22176;SDS011;11254;50.098;8.726;2023-08-01T10:52:03;2.92;;;1.10;;
22176;SDS011;11254;50.098;8.726;2023-08-01T10:54:33;4.25;;;1.10;;
22176;SDS011;11254;50.098;8.726;2023-08-01T10:57:05;3.47;;;1.40;;
22176;SDS011;11254;50.098;8.726;2023-08-01T10:59:35;4.63;;;1.85;;
22176;SDS011;11254;50.098;8.726;2023-08-01T11:02:08;3.88;;;1.38;;
22176;SDS011;11254;50.098;8.726;2023-08-01T11:04:37;3.67;;;1.40;;
22176;SDS011;11254;50.098;8.726;2023-08-01T11:07:08;3.45;;;1.30;;
22176;SDS011;11254;50.098;8.726;2023-08-01T11:09:41;4.00;;;1.38;;
22176;SDS011;11254;50.098;8.726;2023-08-01T11:12:09;4.72;;;1.13;;
22176;SDS011;11254;50.098;8.726;2023-08-01T11:14:38;3.40;;;1.23;;
22176;SDS011;11254;50.098;8.726;2023-08-01T11:17:09;2.75;;;1.05;;
22176;SDS011;11254;50.098;8.726;2023-08-01T11:19:41;2.50;;;1.10;;
22176;SDS011;11254;50.098;8.726;2023-08-01T11:22:14;3.38;;;1.65;;
22176;SDS011;11254;50.098;8.726;2023-08-01T11:24:49;4.45;;;1.30;;
22176;SDS011;11254;50.098;8.726;2023-08-01T11:27:18;5.50;;;1.35;;
22176;SDS011;11254;50.098;8.726;2023-08-01T11:29:47;3.67;;;1.10;;
22176;SDS011;11254;50.098;8.726;2023-08-01T11:32:19;2.95;;;1.48;;
22176;SDS011;11254;50.098;8.726;2023-08-01T11:34:50;3.95;;;1.20;;
22176;SDS011;11254;50.098;8.726;2023-08-01T11:37:18;3.95;;;1.17;;
22176;SDS011;11254;50.098;8.726;2023-08-01T11:39:50;3.65;;;1.42;;
22176;SDS011;11254;50.098;8.726;2023-08-01T11:42:21;2.75;;;1.20;;
22176;SDS011;11254;50.098;8.726;2023-08-01T11:45:06;5.55;;;1.92;;
22176;SDS011;11254;50.098;8.726;2023-08-01T11:47:47;6.85;;;1.48;;
22176;SDS011;11254;50.098;8.726;2023-08-01T11:50:20;4.18;;;1.60;;
22176;SDS011;11254;50.098;8.726;2023-08-01T11:52:49;9.57;;;2.17;;
22176;SDS011;11254;50.098;8.726;2023-08-01T11:55:24;3.63;;;1.30;;
22176;SDS011;11254;50.098;8.726;2023-08-01T11:57:56;5.22;;;1.40;;
22176;SDS011;11254;50.098;8.726;2023-08-01T12:00:30;4.85;;;1.15;;
22176;SDS011;11254;50.098;8.726;2023-08-01T12:03:07;4.47;;;1.30;;
22176;SDS011;11254;50.098;8.726;2023-08-01T12:05:40;4.88;;;1.35;;
22176;SDS011;11254;50.098;8.726;2023-08-01T12:08:13;4.85;;;1.23;;
22176;SDS011;11254;50.098;8.726;2023-08-01T12:10:42;5.55;;;1.30;;
22176;SDS011;11254;50.098;8.726;2023-08-01T12:13:19;6.97;;;1.45;;
22176;SDS011;11254;50.098;8.726;2023-08-01T12:15:49;4.68;;;1.27;;
22176;SDS011;11254;50.098;8.726;2023-08-01T12:18:23;6.95;;;1.38;;
22176;SDS011;11254;50.098;8.726;2023-08-01T12:20:57;6.65;;;1.88;;
22176;SDS011;11254;50.098;8.726;2023-08-01T12:23:29;2.83;;;1.20;;
22176;SDS011;11254;50.098;8.726;2023-08-01T12:25:58;6.38;;;1.10;;
22176;SDS011;11254;50.098;8.726;2023-08-01T12:28:27;4.13;;;1.40;;
22176;SDS011;11254;50.098;8.726;2023-08-01T12:30:55;4.22;;;1.33;;
22176;SDS011;11254;50.098;8.726;2023-08-01T12:33:27;4.68;;;1.55;;
22176;SDS011;11254;50.098;8.726;2023-08-01T12:35:56;4.35;;;1.38;;
22176;SDS011;11254;50.098;8.726;2023-08-01T12:38:25;3.47;;;1.30;;
22176;SDS011;11254;50.098;8.726;2023-08-01T12:40:54;5.28;;;1.40;;
22176;SDS011;11254;50.098;8.726;2023-08-01T12:43:25;5.22;;;1.50;;
22176;SDS011;11254;50.098;8.726;2023-08-01T12:45:55;4.25;;;1.40;;
22176;SDS011;11254;50.098;8.726;2023-08-01T12:48:25;6.40;;;1.90;;
22176;SDS011;11254;50.098;8.726;2023-08-01T12:50:55;5.32;;;1.52;;
22176;SDS011;11254;50.098;8.726;2023-08-01T12:53:24;7.13;;;2.53;;
22176;SDS011;11254;50.098;8.726;2023-08-01T12:55:59;8.75;;;2.55;;
22176;SDS011;11254;50.098;8.726;2023-08-01T12:58:28;7.25;;;2.00;;
22176;SDS011;11254;50.098;8.726;2023-08-01T13:01:02;5.65;;;1.90;;
22176;SDS011;11254;50.098;8.726;2023-08-01T13:03:31;7.28;;;2.20;;
22176;SDS011;11254;50.098;8.726;2023-08-01T13:06:03;7.93;;;2.25;;
22176;SDS011;11254;50.098;8.726;2023-08-01T13:08:32;5.47;;;2.38;;
22176;SDS011;11254;50.098;8.726;2023-08-01T13:11:08;5.80;;;2.08;;
22176;SDS011;11254;50.098;8.726;2023-08-01T13:13:39;4.65;;;1.90;;
22176;SDS011;11254;50.098;8.726;2023-08-01T13:16:11;4.95;;;1.80;;
22176;SDS011;11254;50.098;8.726;2023-08-01T13:18:46;6.93;;;1.98;;
22176;SDS011;11254;50.098;8.726;2023-08-01T13:21:20;8.73;;;1.58;;
22176;SDS011;11254;50.098;8.726;2023-08-01T13:23:51;4.57;;;1.38;;
22176;SDS011;11254;50.098;8.726;2023-08-01T13:26:21;4.18;;;1.70;;
22176;SDS011;11254;50.098;8.726;2023-08-01T13:28:50;6.60;;;1.50;;
22176;SDS011;11254;50.098;8.726;2023-08-01T13:31:22;7.78;;;2.17;;
22176;SDS011;11254;50.098;8.726;2023-08-01T13:33:52;4.55;;;1.60;;
22176;SDS011;11254;50.098;8.726;2023-08-01T13:36:26;4.22;;;1.60;;
22176;SDS011;11254;50.098;8.726;2023-08-01T13:39:04;4.32;;;1.25;;
22176;SDS011;11254;50.098;8.726;2023-08-01T13:41:39;5.10;;;1.50;;
22176;SDS011;11254;50.098;8.726;2023-08-01T13:44:09;4.90;;;1.42;;
22176;SDS011;11254;50.098;8.726;2023-08-01T13:46:39;3.55;;;1.70;;
22176;SDS011;11254;50.098;8.726;2023-08-01T13:49:08;3.05;;;1.25;;
22176;SDS011;11254;50.098;8.726;2023-08-01T13:51:40;4.55;;;1.58;;
22176;SDS011;11254;50.098;8.726;2023-08-01T13:54:11;6.20;;;2.17;;
22176;SDS011;11254;50.098;8.726;2023-08-01T13:56:39;5.43;;;1.90;;
22176;SDS011;11254;50.098;8.726;2023-08-01T13:59:09;3.92;;;1.58;;
22176;SDS011;11254;50.098;8.726;2023-08-01T14:01:38;3.88;;;1.88;;
22176;SDS011;11254;50.098;8.726;2023-08-01T14:04:10;6.00;;;1.80;;
22176;SDS011;11254;50.098;8.726;2023-08-01T14:06:47;4.22;;;2.00;;
22176;SDS011;11254;50.098;8.726;2023-08-01T14:09:20;6.30;;;2.17;;
22176;SDS011;11254;50.098;8.726;2023-08-01T14:11:49;6.13;;;2.08;;
22176;SDS011;11254;50.098;8.726;2023-08-01T14:14:20;5.72;;;2.13;;
22176;SDS011;11254;50.098;8.726;2023-08-01T14:16:52;4.70;;;2.20;;
22176;SDS011;11254;50.098;8.726;2023-08-01T14:19:22;5.68;;;1.90;;
22176;SDS011;11254;50.098;8.726;2023-08-01T14:22:01;5.03;;;1.70;;
22176;SDS011;11254;50.098;8.726;2023-08-01T14:24:32;4.43;;;1.77;;
22176;SDS011;11254;50.098;8.726;2023-08-01T14:27:02;4.63;;;1.50;;
22176;SDS011;11254;50.098;8.726;2023-08-01T14:29:33;4.82;;;2.00;;
22176;SDS011;11254;50.098;8.726;2023-08-01T14:32:06;5.68;;;1.85;;
22176;SDS011;11254;50.098;8.726;2023-08-01T14:34:35;8.02;;;1.98;;
22176;SDS011;11254;50.098;8.726;2023-08-01T14:37:06;4.78;;;1.80;;
22176;SDS011;11254;50.098;8.726;2023-08-01T14:39:38;5.38;;;1.88;;
22176;SDS011;11254;50.098;8.726;2023-08-01T14:42:11;5.30;;;1.77;;
22176;SDS011;11254;50.098;8.726;2023-08-01T14:44:43;5.82;;;1.73;;
22176;SDS011;11254;50.098;8.726;2023-08-01T14:47:13;4.90;;;1.58;;
22176;SDS011;11254;50.098;8.726;2023-08-01T14:49:47;7.40;;;1.58;;
22176;SDS011;11254;50.098;8.726;2023-08-01T14:52:19;4.82;;;1.85;;
22176;SDS011;11254;50.098;8.726;2023-08-01T14:54:56;3.88;;;1.38;;
22176;SDS011;11254;50.098;8.726;2023-08-01T14:57:28;3.15;;;1.33;;
22176;SDS011;11254;50.098;8.726;2023-08-01T14:59:56;5.75;;;1.58;;
22176;SDS011;11254;50.098;8.726;2023-08-01T15:02:25;4.38;;;1.45;;